KEYO2: Keystone Lake

Data processed at Sun Jul 15 2018 23:03


All information presented herein is the property of the government of the United States of America and may be revised or deleted at any time without prior notice.
Dissemination of this information without the expressed written consent of the Public Affairs Office, Tulsa District U.S. Army Corps of Engineers is strictly prohibited.
These data are gathered electronically and, as presented, have not undergone any form of quality control. These data are not guaranteed to be valid or correct.
Go to home page.
Go to station list.

Upstream stations:

Downstream station:
Previous Day
Next Day
Current Day
    
SHEF ID:       KEYO2     Keystone Lake
STATION TYPE:  Reservoir
Normal Pool:  Bottom =   706.00, Top =   723.00

               PRECIP ELEVATION   STORAGE   TW-ELEV    INFLOW   RELEASE  AIR-TEMP  WIND-DIRWIND-SPEED REL-HUMID SOLAR-RAD   VOLTAGE  BAT-LOAD
                   in        ft     ac-ft        ft       cfs       cfs         F       deg       mph         %      W/m2      volt      volt
              Ccp-Rev   Ccp-Rev   Ccp-Rev   Ccp-Rev  Regi-Rev  Regi-Rev   Ccp-Rev   Ccp-Rev   Ccp-Rev   Ccp-Rev   Ccp-Rev   Ccp-Rev   Ccp-Rev
(US/Central)
07/13 00:00      0.00    725.21    472375    638.46       923        60     82.63    152.30      3.77     68.25      0.00     13.72     13.18
07/13 01:00      0.00    725.24    473050    638.11       577        60     81.10    147.00      2.99     73.02      0.00     13.72     13.24
07/13 02:00      0.00    725.25    473275    638.00       679        60     79.34    117.30      1.33     77.17      0.00     13.72     13.18
07/13 03:00      0.00    725.26    473500    637.95       891        60     77.68     96.80      2.28     81.38      0.00     13.72     13.24
07/13 04:00      ----    725.27    473725    637.94       671        60     77.25    199.40      0.22     87.06      0.00      ----      ----
07/13 05:00      0.00    725.29    474175    637.94       639        60     74.84     94.90      2.03     92.98      0.00     13.71     13.18
07/13 06:00      0.00    725.30    474400    637.92       528        60     73.85     97.50      2.01     95.54      0.00     13.71     13.18
07/13 07:00      0.00    725.32    474850    637.92       416        60     74.52    101.60      4.70     93.17     24.00     13.72     13.18
07/13 08:00      0.00    725.32    474850    637.92       194        60     76.26     94.20      2.85     85.90    140.00     13.72     13.18
07/13 09:00      0.00    725.34    475300    637.92        81        60     77.92     94.00      2.92     82.00    312.00     13.72     13.18
07/13 10:00      0.00    725.34    475300    637.92         1        60     78.80     95.90      3.16     79.06    277.00     13.72     13.18
07/13 11:00      0.00    725.30    474400    639.46         0        60     82.87    110.30      3.92     69.06    730.00     13.72     13.24
07/13 12:00      0.00    725.30    474400    642.39         0        60     86.04    126.80      5.80     59.89    900.00     13.71     13.18
07/13 13:00      0.00    725.24    473050    642.53         0      6000     87.60    135.80      5.75     52.39    953.00     13.71     13.18
07/13 14:00      0.00    725.21    472375    642.61       130     11700     89.35    129.40      7.49     52.44    949.00     13.71     13.18
07/13 15:00      0.00    725.18    471700    642.60       162     11700     90.55    142.10      6.69     48.60    715.00     13.72     12.54
07/13 16:00      0.00    725.15    471025    642.65       195     11700     91.98    181.00      4.97     45.73    812.00     13.72     13.24
07/13 17:00      0.00    725.11    470125    642.65       228     11700     93.18    167.30      5.69     43.96    661.00     13.71     13.24
07/13 18:00      0.00    725.06    469000    642.63       351     11700     92.53    164.70      5.69     45.97    485.00     13.71     12.07
07/13 19:00      0.00    725.03    468325    642.69       345     11700     92.43    167.30      6.60     47.56    311.00     13.72     13.18
07/13 20:00      0.00    725.00    467650    642.67       601     11700     91.33    167.90      4.82     52.63    122.00     13.72     13.18
07/13 21:00      0.00    724.96    466897    642.67       570     11700     88.68    144.10      3.64     56.41     16.00     13.72     13.18
07/13 22:00      0.00    724.94    466521    642.02       632     11700     85.17    116.00      1.61     63.92      0.00     13.73     13.24
07/13 23:00      0.00    724.94    466521    639.41       656        60     84.07    119.50      2.46     66.79      0.00     13.72     13.18